Time;durP1;ratioP1;P1;durP2;ratioP2;P2;SDS_P1;SDS_P2;PMS_P1;PMS_P2;Temp;Humidity;BMP_temperature;BMP_pressure;BME280_temperature;BME280_humidity;BME280_pressure;Samples;Min_cycle;Max_cycle;Signal;HPM_P1;HPM_P2
2023/09/10 00:00:06;;;;;;;10.90;8.50;;;;;;;25.30;53.30;97609.91;5038300;28;20215;-72
2023/09/10 00:02:31;;;;;;;12.40;8.90;;;;;;;25.28;53.38;97606.66;5029750;28;20693;-73
2023/09/10 00:04:56;;;;;;;12.10;9.83;;;;;;;25.28;53.54;97608.50;5031510;28;20438;-72
2023/09/10 00:07:22;;;;;;;9.80;8.90;;;;;;;25.27;53.51;97610.38;5033844;28;20215;-72
2023/09/10 00:09:47;;;;;;;14.47;9.07;;;;;;;25.25;53.42;97607.13;5039581;28;20187;-74
2023/09/10 00:12:13;;;;;;;13.70;9.00;;;;;;;25.16;53.51;97611.22;5046735;28;20639;-73
2023/09/10 00:14:38;;;;;;;10.80;9.33;;;;;;;25.11;53.93;97616.47;5032343;28;20283;-72
2023/09/10 00:17:04;;;;;;;11.20;9.10;;;;;;;25.06;53.77;97616.38;5044376;28;20354;-73
2023/09/10 00:19:29;;;;;;;11.27;8.80;;;;;;;25.08;54.17;97622.31;5017703;28;20214;-74
2023/09/10 00:21:55;;;;;;;14.93;9.50;;;;;;;25.11;53.98;97621.84;5006628;28;20744;-73
2023/09/10 00:24:20;;;;;;;18.80;9.33;;;;;;;25.12;54.20;97618.09;5039412;28;20286;-73
2023/09/10 00:26:45;;;;;;;11.43;9.07;;;;;;;25.07;53.91;97620.69;5034323;28;20246;-73
2023/09/10 00:29:11;;;;;;;11.07;9.23;;;;;;;25.02;54.30;97618.69;5033820;28;20196;-73
2023/09/10 00:31:37;;;;;;;18.93;9.47;;;;;;;24.97;54.48;97610.56;5033184;28;20191;-73
2023/09/10 00:34:02;;;;;;;12.03;10.03;;;;;;;24.96;54.03;97615.09;5032306;28;20271;-72
2023/09/10 00:36:27;;;;;;;10.70;8.43;;;;;;;24.94;54.46;97611.88;5042724;28;20218;-72
2023/09/10 00:38:53;;;;;;;11.80;8.97;;;;;;;24.94;54.63;97616.38;5019535;28;20263;-71
2023/09/10 00:41:18;;;;;;;10.77;8.60;;;;;;;24.97;54.14;97611.38;5041582;28;20194;-71
2023/09/10 00:43:44;;;;;;;11.17;8.90;;;;;;;24.94;54.10;97603.81;5038507;28;20215;-72
2023/09/10 00:46:09;;;;;;;10.03;9.03;;;;;;;24.94;54.08;97601.13;5042993;28;20310;-72
2023/09/10 00:48:36;;;;;;;16.23;9.40;;;;;;;24.93;54.53;97604.88;5040063;28;20820;-72
2023/09/10 00:51:02;;;;;;;9.30;8.07;;;;;;;24.93;54.45;97598.69;5006479;28;20237;-71
2023/09/10 00:53:28;;;;;;;11.50;8.73;;;;;;;24.99;54.29;97595.88;5023553;28;20453;-72
2023/09/10 00:55:54;;;;;;;11.47;8.03;;;;;;;25.00;54.29;97599.38;5019927;28;20581;-71
2023/09/10 00:58:19;;;;;;;14.40;8.80;;;;;;;24.95;53.91;97600.06;5034687;28;20708;-72
2023/09/10 01:00:46;;;;;;;15.60;8.37;;;;;;;24.88;54.16;97599.38;5044156;28;20428;-72
2023/09/10 01:03:13;;;;;;;10.73;8.43;;;;;;;24.86;54.35;97598.81;5038820;28;20235;-71
2023/09/10 01:05:39;;;;;;;11.10;8.20;;;;;;;24.81;54.82;97598.72;5039029;28;20462;-72
2023/09/10 01:08:05;;;;;;;10.77;8.77;;;;;;;24.80;54.50;97599.75;5031531;28;20853;-70
2023/09/10 01:10:49;;;;;;;10.80;8.70;;;;;;;24.83;54.64;97604.63;5043757;28;20187;-71
2023/09/10 01:13:25;;;;;;;13.27;8.13;;;;;;;24.75;54.53;97605.00;5018907;28;20529;-72
2023/09/10 01:16:06;;;;;;;11.43;8.90;;;;;;;24.70;55.08;97594.97;5011177;28;20935;-72
2023/09/10 01:18:38;;;;;;;11.10;8.13;;;;;;;24.72;55.01;97597.41;5010292;28;21022;-72
2023/09/10 01:21:25;;;;;;;12.20;9.10;;;;;;;24.75;55.07;97599.63;5029457;28;20425;-70
2023/09/10 01:24:16;;;;;;;15.40;8.63;;;;;;;24.73;54.72;97599.03;5013760;28;20457;-72
2023/09/10 01:26:41;;;;;;;10.93;8.40;;;;;;;24.73;54.89;97601.72;5017953;28;20472;-72
2023/09/10 01:29:13;;;;;;;10.63;8.60;;;;;;;24.71;54.97;97601.13;5024185;28;20431;-72
2023/09/10 01:31:40;;;;;;;13.63;8.23;;;;;;;24.67;55.00;97596.25;5040418;28;20336;-72
2023/09/10 01:34:09;;;;;;;13.73;8.40;;;;;;;24.68;54.91;97597.88;5017599;28;20445;-71
2023/09/10 01:36:38;;;;;;;9.93;7.67;;;;;;;24.71;54.77;97598.47;5022289;28;20480;-72
2023/09/10 01:39:26;;;;;;;11.93;8.87;;;;;;;24.68;54.59;97592.50;5040022;28;20429;-72
2023/09/10 01:41:52;;;;;;;17.37;8.87;;;;;;;24.68;55.00;97591.69;5017969;28;20440;-71
2023/09/10 01:44:18;;;;;;;10.43;8.60;;;;;;;24.61;55.24;97597.16;5022419;28;20462;-72
2023/09/10 01:46:44;;;;;;;13.90;8.80;;;;;;;24.51;55.24;97602.28;5014329;28;20211;-72
2023/09/10 01:49:10;;;;;;;10.07;7.90;;;;;;;24.30;55.71;97596.47;5018435;28;20434;-71
2023/09/10 01:51:35;;;;;;;11.73;8.10;;;;;;;24.31;55.63;97603.47;5032684;28;20547;-71
2023/09/10 01:54:00;;;;;;;16.10;7.90;;;;;;;24.33;55.93;97597.88;5044221;28;20179;-71
2023/09/10 01:56:26;;;;;;;19.83;8.10;;;;;;;24.38;55.68;97604.16;5034464;28;20246;-72
2023/09/10 01:58:51;;;;;;;9.43;8.43;;;;;;;24.37;55.43;97602.53;5037088;28;20192;-73
2023/09/10 02:01:17;;;;;;;11.33;8.57;;;;;;;24.35;55.67;97604.59;5025138;28;20221;-72
2023/09/10 02:03:42;;;;;;;9.00;8.10;;;;;;;24.36;55.47;97608.13;5033563;28;20676;-71
2023/09/10 02:06:08;;;;;;;10.90;8.87;;;;;;;24.32;55.64;97602.38;5035170;28;20199;-71
2023/09/10 02:08:33;;;;;;;11.80;8.30;;;;;;;24.31;55.53;97599.94;5031093;28;20278;-72
2023/09/10 02:11:05;;;;;;;12.97;8.80;;;;;;;24.27;55.87;97593.41;5038828;28;20206;-71
2023/09/10 02:13:31;;;;;;;8.50;7.60;;;;;;;24.22;56.15;97594.13;5009720;28;20176;-72
2023/09/10 02:15:56;;;;;;;10.73;8.17;;;;;;;24.29;56.04;97600.19;5031532;28;20441;-72
2023/09/10 02:18:22;;;;;;;9.77;8.67;;;;;;;24.34;55.95;97594.94;5013027;28;20194;-72
2023/09/10 02:20:47;;;;;;;11.77;7.80;;;;;;;24.35;55.31;97598.44;5038662;28;20215;-71
2023/09/10 02:23:13;;;;;;;11.60;9.10;;;;;;;24.37;55.48;97594.47;5025482;28;20199;-72
2023/09/10 02:25:38;;;;;;;11.07;8.50;;;;;;;24.36;55.11;97598.22;5032711;28;20572;-72
2023/09/10 02:28:04;;;;;;;10.73;9.33;;;;;;;24.31;55.08;97600.78;5030749;28;20774;-72
2023/09/10 02:30:30;;;;;;;12.30;8.33;;;;;;;24.23;55.88;97595.75;5031319;28;20218;-72
2023/09/10 02:32:55;;;;;;;11.33;9.00;;;;;;;24.21;55.89;97596.00;5033623;28;20179;-72
2023/09/10 02:35:21;;;;;;;12.37;9.10;;;;;;;24.27;55.76;97598.78;5030461;28;20276;-72
2023/09/10 02:37:47;;;;;;;11.27;7.97;;;;;;;24.23;55.73;97593.06;5030816;28;20655;-73
2023/09/10 02:40:12;;;;;;;16.23;8.50;;;;;;;24.21;55.56;97593.31;5016029;28;20254;-72
2023/09/10 02:42:39;;;;;;;10.87;7.80;;;;;;;24.20;55.65;97590.84;5018735;28;20204;-72
2023/09/10 02:45:05;;;;;;;12.27;8.13;;;;;;;24.19;55.80;97591.91;5030473;28;20211;-72
2023/09/10 02:47:31;;;;;;;10.17;7.30;;;;;;;24.18;55.39;97587.59;5031974;28;20441;-72
2023/09/10 02:49:57;;;;;;;10.23;8.40;;;;;;;24.13;55.72;97593.63;5037361;28;20425;-72
2023/09/10 02:52:24;;;;;;;13.20;8.50;;;;;;;24.14;55.87;97594.47;5042226;28;20195;-72
2023/09/10 02:54:51;;;;;;;10.77;7.87;;;;;;;24.13;55.74;97590.16;5037491;28;20270;-72
2023/09/10 02:57:16;;;;;;;15.13;8.30;;;;;;;24.11;55.55;97593.06;5033162;28;20973;-70
2023/09/10 02:59:41;;;;;;;16.50;8.20;;;;;;;24.08;55.75;97591.66;5030003;28;20430;-71
2023/09/10 03:02:07;;;;;;;11.87;7.90;;;;;;;24.06;55.71;97592.94;5025995;28;20660;-73
2023/09/10 03:04:32;;;;;;;10.47;7.70;;;;;;;24.07;55.54;97581.97;5032446;28;20296;-72
2023/09/10 03:07:01;;;;;;;9.83;8.00;;;;;;;24.10;55.50;97591.44;5037154;28;20222;-72
2023/09/10 03:09:26;;;;;;;8.80;7.90;;;;;;;24.11;55.26;97592.25;5030801;28;20283;-72
2023/09/10 03:11:52;;;;;;;7.87;7.17;;;;;;;24.10;55.22;97593.28;5019252;28;20532;-73
2023/09/10 03:14:17;;;;;;;11.67;8.17;;;;;;;24.08;55.57;97594.31;5027335;28;20270;-71
2023/09/10 03:16:43;;;;;;;13.70;8.00;;;;;;;24.10;55.42;97596.78;5011927;28;20246;-71
2023/09/10 03:19:08;;;;;;;9.60;7.90;;;;;;;24.06;55.26;97596.44;5043803;28;20835;-71
2023/09/10 03:21:36;;;;;;;8.53;7.77;;;;;;;24.04;55.33;97598.53;5030535;28;20186;-73
2023/09/10 03:24:01;;;;;;;10.47;8.63;;;;;;;24.02;54.85;97600.63;5036144;28;20218;-71
2023/09/10 03:26:26;;;;;;;10.83;7.50;;;;;;;24.00;55.26;97602.69;5039928;28;20603;-72
2023/09/10 03:28:52;;;;;;;10.20;7.43;;;;;;;23.97;55.45;97597.78;5036502;28;20226;-72
2023/09/10 03:31:17;;;;;;;13.77;8.20;;;;;;;23.98;55.36;97603.97;5029022;28;20207;-72
2023/09/10 03:33:43;;;;;;;12.03;8.27;;;;;;;23.97;55.37;97595.13;5024012;28;20238;-72
2023/09/10 03:36:09;;;;;;;11.67;7.70;;;;;;;23.99;55.15;97606.41;5031962;28;20262;-73
2023/09/10 03:38:35;;;;;;;12.53;7.60;;;;;;;23.92;55.50;97601.13;5028486;28;20191;-72
2023/09/10 03:41:00;;;;;;;9.80;7.57;;;;;;;23.83;55.75;97601.69;5032728;28;20433;-72
2023/09/10 03:43:26;;;;;;;10.80;8.27;;;;;;;23.86;55.74;97606.59;5028639;28;20211;-72
2023/09/10 03:45:51;;;;;;;9.33;8.43;;;;;;;23.86;55.91;97604.75;5038296;28;20596;-72
2023/09/10 03:48:16;;;;;;;9.53;7.60;;;;;;;23.83;55.74;97596.34;5035402;28;20274;-72
2023/09/10 03:50:42;;;;;;;10.83;7.63;;;;;;;23.78;55.94;97595.16;5040397;28;20248;-72
2023/09/10 03:53:07;;;;;;;9.00;8.10;;;;;;;23.77;56.19;97592.72;5040225;28;20559;-72
2023/09/10 03:55:33;;;;;;;11.80;8.37;;;;;;;23.71;55.89;97602.47;5042238;28;20292;-72
2023/09/10 03:57:59;;;;;;;10.67;8.10;;;;;;;23.68;55.99;97605.63;5038361;28;20195;-71
2023/09/10 04:00:26;;;;;;;11.63;8.17;;;;;;;23.64;55.98;97615.13;5034352;28;20199;-72
2023/09/10 04:02:51;;;;;;;9.93;7.67;;;;;;;23.63;55.97;97614.28;5019285;28;20749;-71
2023/09/10 04:05:17;;;;;;;10.57;7.50;;;;;;;23.58;56.33;97610.66;5043337;28;20443;-71
2023/09/10 04:07:42;;;;;;;10.63;8.80;;;;;;;23.56;56.03;97607.44;5042158;28;20194;-72
2023/09/10 04:10:08;;;;;;;11.60;7.87;;;;;;;23.51;56.52;97604.59;5035515;28;20313;-72
2023/09/10 04:12:34;;;;;;;8.43;7.60;;;;;;;23.54;56.33;97601.50;5038104;28;20699;-72
2023/09/10 04:15:00;;;;;;;9.20;7.90;;;;;;;23.50;56.63;97609.16;5037861;28;20184;-72
2023/09/10 04:17:28;;;;;;;9.10;7.70;;;;;;;23.49;56.65;97615.53;5034665;28;20466;-72
2023/09/10 04:20:00;;;;;;;11.37;8.20;;;;;;;23.43;56.71;97609.25;5039162;28;20244;-72
2023/09/10 04:22:26;;;;;;;9.03;7.60;;;;;;;23.39;57.05;97608.03;5043071;28;20465;-72
2023/09/10 04:24:51;;;;;;;8.83;7.93;;;;;;;23.41;56.99;97610.47;5035041;28;20813;-73
2023/09/10 04:27:17;;;;;;;12.93;8.23;;;;;;;23.45;56.62;97609.00;5042860;28;20486;-72
2023/09/10 04:29:43;;;;;;;11.30;8.20;;;;;;;23.46;56.60;97608.75;5035426;28;20567;-72
2023/09/10 04:32:08;;;;;;;12.73;8.60;;;;;;;23.46;56.41;97602.63;5017903;28;20192;-72
2023/09/10 04:34:33;;;;;;;12.90;8.47;;;;;;;23.47;56.37;97607.72;5045455;28;20269;-73
2023/09/10 04:36:59;;;;;;;9.50;8.37;;;;;;;23.43;56.22;97606.56;5035120;28;20568;-72
2023/09/10 04:39:24;;;;;;;11.90;7.90;;;;;;;23.41;56.30;97611.31;5034130;28;20282;-72
2023/09/10 04:41:50;;;;;;;10.10;8.10;;;;;;;23.42;56.42;97612.13;5045844;28;20191;-72
2023/09/10 04:44:16;;;;;;;11.57;8.70;;;;;;;23.39;56.38;97613.38;5033931;28;20237;-71
2023/09/10 04:46:41;;;;;;;14.40;8.73;;;;;;;23.28;56.53;97616.81;5041961;28;20215;-71
2023/09/10 04:49:07;;;;;;;13.20;9.00;;;;;;;23.20;57.17;97609.94;5046720;28;21131;-71
2023/09/10 04:51:32;;;;;;;9.30;7.90;;;;;;;23.16;57.39;97619.38;5038195;28;20196;-72
2023/09/10 04:53:58;;;;;;;14.17;9.73;;;;;;;23.21;56.88;97616.06;5035890;28;20274;-72
2023/09/10 04:56:23;;;;;;;9.23;8.33;;;;;;;23.25;56.98;97623.41;5038589;28;20308;-71
2023/09/10 04:58:48;;;;;;;10.63;8.67;;;;;;;23.26;56.80;97614.34;5031462;28;20321;-72
2023/09/10 05:01:14;;;;;;;8.80;7.90;;;;;;;23.22;56.83;97621.22;5038812;28;20666;-72
2023/09/10 05:03:41;;;;;;;15.20;8.87;;;;;;;23.22;57.03;97623.06;5037385;28;20265;-73
2023/09/10 05:06:07;;;;;;;11.33;8.70;;;;;;;23.21;56.90;97632.09;5025571;28;20226;-73
2023/09/10 05:08:32;;;;;;;11.70;8.50;;;;;;;23.21;56.97;97626.75;5043261;28;20927;-72
2023/09/10 05:10:58;;;;;;;8.43;7.63;;;;;;;23.19;57.03;97632.31;5032916;28;20448;-73
2023/09/10 05:13:23;;;;;;;9.83;8.00;;;;;;;23.20;56.90;97630.47;5033527;28;20191;-72
2023/09/10 05:15:49;;;;;;;10.40;8.53;;;;;;;23.20;56.44;97627.81;5039186;28;20286;-72
2023/09/10 05:18:15;;;;;;;14.30;8.77;;;;;;;23.20;56.89;97635.81;5032447;28;20696;-72
2023/09/10 05:20:41;;;;;;;10.53;8.83;;;;;;;23.22;56.87;97634.59;5037320;28;20195;-73
2023/09/10 05:23:06;;;;;;;11.73;8.40;;;;;;;23.27;56.93;97632.03;5031387;28;20303;-72
2023/09/10 05:25:36;;;;;;;14.93;8.70;;;;;;;23.27;56.89;97637.38;5032938;28;20200;-73
2023/09/10 05:28:01;;;;;;;11.63;9.00;;;;;;;23.27;57.13;97639.25;5026428;28;20195;-72
2023/09/10 05:30:27;;;;;;;10.20;8.83;;;;;;;23.19;57.11;97639.53;5036775;28;20453;-72
2023/09/10 05:32:52;;;;;;;12.67;9.10;;;;;;;23.18;57.26;97630.69;5032491;28;20179;-73
2023/09/10 05:35:18;;;;;;;11.07;9.10;;;;;;;23.19;57.44;97639.53;5031894;28;20255;-72
2023/09/10 05:37:43;;;;;;;12.60;9.40;;;;;;;23.21;57.28;97643.63;5027881;28;20206;-72
2023/09/10 05:40:09;;;;;;;15.10;8.70;;;;;;;23.25;57.37;97647.47;5019512;28;20187;-72
2023/09/10 05:42:34;;;;;;;13.23;9.00;;;;;;;23.30;57.46;97638.81;5040228;28;20215;-73
2023/09/10 05:45:00;;;;;;;12.60;9.80;;;;;;;23.27;57.48;97642.72;5031762;28;20672;-73
2023/09/10 05:47:25;;;;;;;12.30;8.90;;;;;;;23.30;57.71;97642.28;5033994;28;20568;-73
2023/09/10 05:49:51;;;;;;;12.43;8.07;;;;;;;23.38;57.81;97638.50;5036595;28;20191;-73
2023/09/10 05:52:17;;;;;;;11.00;9.00;;;;;;;23.47;57.67;97636.34;5033217;28;20198;-72
2023/09/10 05:54:42;;;;;;;12.57;9.83;;;;;;;23.51;57.29;97642.84;5030804;28;20687;-72
2023/09/10 05:57:08;;;;;;;10.17;8.83;;;;;;;23.62;57.18;97639.44;5038428;28;20256;-72
2023/09/10 05:59:33;;;;;;;14.57;8.80;;;;;;;23.72;56.92;97643.44;5032380;28;20254;-72
2023/09/10 06:01:59;;;;;;;10.03;8.93;;;;;;;23.80;56.88;97645.78;5033317;28;20604;-72
2023/09/10 06:04:24;;;;;;;13.20;9.50;;;;;;;23.85;56.71;97643.25;5039641;28;20361;-72
2023/09/10 06:06:50;;;;;;;12.10;8.70;;;;;;;23.93;56.85;97642.13;5048878;28;20298;-72
2023/09/10 06:09:15;;;;;;;10.00;8.83;;;;;;;23.98;56.81;97638.78;5038556;28;20191;-71
2023/09/10 06:11:41;;;;;;;11.03;8.57;;;;;;;24.09;56.68;97646.03;5026439;28;20222;-71
2023/09/10 06:14:06;;;;;;;11.63;9.00;;;;;;;24.19;56.42;97643.59;5036761;28;20208;-72
2023/09/10 06:16:32;;;;;;;10.13;8.30;;;;;;;24.34;56.52;97651.19;5039324;28;20575;-71
2023/09/10 06:18:58;;;;;;;11.07;9.53;;;;;;;24.46;56.10;97642.34;5036251;28;20195;-72
2023/09/10 06:21:23;;;;;;;19.90;9.37;;;;;;;24.55;55.67;97646.31;5034802;28;20521;-72
2023/09/10 06:23:48;;;;;;;12.67;9.00;;;;;;;24.62;55.65;97638.97;5032291;28;20207;-72
2023/09/10 06:26:14;;;;;;;9.70;8.50;;;;;;;24.76;55.99;97638.78;5030826;28;20290;-72
2023/09/10 06:28:39;;;;;;;9.73;8.60;;;;;;;24.83;55.69;97645.66;5030295;28;20283;-72
2023/09/10 06:31:06;;;;;;;9.23;8.33;;;;;;;24.85;55.51;97637.38;5030390;28;20710;-72
2023/09/10 06:33:33;;;;;;;21.50;9.27;;;;;;;24.95;54.92;97645.63;5029944;28;20219;-73
2023/09/10 06:35:58;;;;;;;13.83;9.90;;;;;;;25.07;55.11;97642.16;5035807;28;20988;-72
2023/09/10 06:38:23;;;;;;;10.80;8.97;;;;;;;25.16;55.17;97651.44;5041389;28;20462;-72
2023/09/10 06:40:51;;;;;;;15.37;8.40;;;;;;;25.29;54.99;97651.19;5043143;28;20270;-72
2023/09/10 06:43:16;;;;;;;15.10;9.43;;;;;;;25.43;54.92;97650.97;5038101;28;20213;-72
2023/09/10 06:45:43;;;;;;;9.30;8.30;;;;;;;25.55;54.56;97648.22;5045089;28;20457;-72
2023/09/10 06:48:08;;;;;;;14.03;8.50;;;;;;;25.66;54.16;97650.03;5030758;28;20661;-72
2023/09/10 06:50:34;;;;;;;9.67;8.67;;;;;;;25.78;54.08;97660.75;5035394;28;20492;-72
2023/09/10 06:52:59;;;;;;;11.43;9.30;;;;;;;25.94;53.47;97661.03;5032666;28;20301;-73
2023/09/10 06:55:25;;;;;;;16.27;10.33;;;;;;;26.10;52.82;97660.25;5029963;28;20278;-72
2023/09/10 06:57:50;;;;;;;12.00;9.00;;;;;;;26.26;52.82;97657.84;5033938;28;20222;-72
2023/09/10 07:00:16;;;;;;;11.00;8.20;;;;;;;26.39;52.79;97657.53;5042083;28;20643;-72
2023/09/10 07:02:41;;;;;;;11.20;8.70;;;;;;;26.55;52.27;97657.78;5038299;28;20215;-71
2023/09/10 07:05:07;;;;;;;14.20;8.80;;;;;;;26.68;52.19;97666.31;5038181;28;20188;-72
2023/09/10 07:07:32;;;;;;;10.27;8.90;;;;;;;26.86;51.84;97663.63;5029010;28;20219;-72
2023/09/10 07:09:58;;;;;;;12.03;8.83;;;;;;;27.00;51.53;97667.59;5031174;28;20191;-72
2023/09/10 07:12:23;;;;;;;18.60;9.77;;;;;;;27.18;50.84;97665.69;5041564;28;20199;-71
2023/09/10 07:14:49;;;;;;;12.50;9.77;;;;;;;27.37;50.51;97661.63;5030556;28;20187;-72
2023/09/10 07:17:15;;;;;;;16.00;9.27;;;;;;;27.59;50.14;97663.53;5043942;28;20211;-73
2023/09/10 07:19:41;;;;;;;9.23;7.90;;;;;;;27.78;49.53;97671.25;5036854;28;20560;-73
2023/09/10 07:22:06;;;;;;;10.17;8.13;;;;;;;27.95;49.29;97666.63;5009442;28;20773;-72
2023/09/10 07:24:32;;;;;;;9.00;7.90;;;;;;;28.18;49.11;97673.56;5029300;28;20226;-72
2023/09/10 07:26:58;;;;;;;15.23;8.47;;;;;;;28.38;47.53;97671.31;5030089;28;20257;-72
2023/09/10 07:29:24;;;;;;;15.33;8.20;;;;;;;28.51;47.51;97670.88;5020692;28;20557;-72
2023/09/10 07:31:50;;;;;;;13.30;8.17;;;;;;;28.69;47.21;97669.66;5027267;28;20432;-73
2023/09/10 07:34:15;;;;;;;14.63;8.60;;;;;;;28.83;47.25;97670.06;5029695;28;20628;-72
2023/09/10 07:36:43;;;;;;;10.10;8.40;;;;;;;29.02;47.14;97669.63;5030746;28;20224;-72
2023/09/10 07:39:08;;;;;;;9.37;7.70;;;;;;;29.18;46.09;97667.81;5029948;28;20722;-72
2023/09/10 07:41:34;;;;;;;10.13;7.60;;;;;;;29.35;45.93;97671.19;5030142;28;20442;-72
2023/09/10 07:44:02;;;;;;;13.97;7.43;;;;;;;29.51;45.24;97665.84;5033638;28;20210;-72
2023/09/10 07:46:28;;;;;;;10.43;7.47;;;;;;;29.69;45.00;97669.97;5037139;28;20245;-73
2023/09/10 07:48:53;;;;;;;10.40;7.63;;;;;;;29.87;44.08;97672.16;5012534;28;20476;-72
2023/09/10 07:51:19;;;;;;;11.07;7.23;;;;;;;29.96;43.49;97675.16;5029417;28;20478;-73
2023/09/10 07:53:44;;;;;;;12.30;7.27;;;;;;;30.09;43.34;97675.72;5013563;28;20191;-72
2023/09/10 07:56:10;;;;;;;11.63;7.87;;;;;;;30.24;42.57;97680.38;4989477;28;20723;-72
2023/09/10 07:58:35;;;;;;;12.27;7.20;;;;;;;30.37;42.01;97684.41;5041846;28;20188;-71
2023/09/10 08:01:01;;;;;;;8.33;6.83;;;;;;;30.48;42.25;97681.44;5042097;28;20732;-72
2023/09/10 08:03:26;;;;;;;16.07;7.30;;;;;;;30.66;41.85;97683.91;5049276;28;20294;-72
2023/09/10 08:05:52;;;;;;;11.67;6.40;;;;;;;30.75;41.80;97679.56;5041366;28;20206;-71
2023/09/10 08:08:17;;;;;;;7.77;6.53;;;;;;;30.89;41.43;97677.91;5032930;28;20184;-73
2023/09/10 08:10:44;;;;;;;8.90;6.63;;;;;;;31.12;40.86;97680.31;5041444;28;20183;-72
2023/09/10 08:13:12;;;;;;;7.90;6.00;;;;;;;31.21;40.32;97689.50;5032547;28;20215;-72
2023/09/10 08:15:40;;;;;;;11.10;6.73;;;;;;;31.35;39.87;97681.59;5029438;28;20437;-72
2023/09/10 08:18:10;;;;;;;9.67;6.83;;;;;;;31.49;39.44;97682.63;5027671;28;20430;-72
2023/09/10 08:20:39;;;;;;;8.90;6.40;;;;;;;31.61;39.16;97684.19;5029874;28;20430;-71
2023/09/10 08:23:05;;;;;;;9.70;6.30;;;;;;;31.70;39.44;97675.25;5039333;28;20461;-70
2023/09/10 08:25:31;;;;;;;8.40;6.40;;;;;;;31.76;40.04;97680.66;4994141;28;20444;-71
2023/09/10 08:27:57;;;;;;;9.93;6.77;;;;;;;31.92;39.59;97671.31;5011767;28;20199;-72
2023/09/10 08:30:22;;;;;;;8.30;6.47;;;;;;;32.16;38.97;97673.31;5032508;28;20422;-73
2023/09/10 08:32:49;;;;;;;10.10;6.50;;;;;;;32.31;39.24;97675.94;5032411;28;20241;-72
2023/09/10 08:35:17;;;;;;;9.63;7.50;;;;;;;32.45;38.71;97680.72;5044736;28;20575;-72
2023/09/10 08:37:43;;;;;;;11.20;7.07;;;;;;;32.54;38.67;97683.66;5041828;28;20457;-72
2023/09/10 08:40:10;;;;;;;13.63;6.43;;;;;;;32.66;38.61;97683.25;5032847;28;20434;-71
2023/09/10 08:43:06;;;;;;;7.60;6.80;;;;;;;32.78;37.97;97681.78;5039096;28;20691;-72
2023/09/10 08:45:31;;;;;;;20.03;7.00;;;;;;;33.00;37.31;97685.13;5013959;28;20521;-72
2023/09/10 08:47:57;;;;;;;10.37;6.90;;;;;;;33.08;37.24;97679.06;5039334;28;20838;-72
2023/09/10 08:50:23;;;;;;;9.50;6.80;;;;;;;33.19;36.11;97675.16;5023968;28;20579;-72
2023/09/10 08:52:49;;;;;;;12.30;7.23;;;;;;;33.27;36.47;97683.75;5034214;28;20425;-72
2023/09/10 08:55:15;;;;;;;10.90;6.83;;;;;;;33.30;36.81;97688.59;5015176;28;20422;-72
2023/09/10 08:57:41;;;;;;;9.73;6.50;;;;;;;33.47;36.32;97688.97;5032177;28;20704;-73
2023/09/10 09:00:12;;;;;;;11.50;6.90;;;;;;;33.58;36.07;97686.13;5032523;28;20576;-72
2023/09/10 09:02:44;;;;;;;10.63;6.80;;;;;;;33.68;35.86;97677.81;5044532;28;20464;-72
2023/09/10 09:05:12;;;;;;;10.37;7.20;;;;;;;33.77;35.59;97684.25;5031706;28;20532;-72
2023/09/10 09:07:46;;;;;;;17.07;7.40;;;;;;;33.78;35.53;97672.25;5044672;28;20540;-72
2023/09/10 09:10:14;;;;;;;15.07;7.27;;;;;;;33.97;35.22;97674.19;5026748;28;20516;-73
2023/09/10 09:12:40;;;;;;;11.50;6.77;;;;;;;34.12;34.74;97670.44;5031095;28;20521;-72
2023/09/10 09:15:07;;;;;;;13.53;10.77;;;;;;;34.26;34.63;97676.75;5014927;28;20940;-72
2023/09/10 09:17:33;;;;;;;10.57;8.97;;;;;;;34.39;33.70;97675.19;5037374;28;20462;-71
2023/09/10 09:20:01;;;;;;;12.07;6.80;;;;;;;34.53;33.41;97679.91;5032393;28;20504;-72
2023/09/10 09:22:29;;;;;;;8.63;7.83;;;;;;;34.58;33.68;97680.63;5022117;28;20198;-73
2023/09/10 09:24:55;;;;;;;16.00;7.20;;;;;;;34.62;32.80;97680.81;5015606;28;20422;-73
2023/09/10 09:27:22;;;;;;;11.67;6.37;;;;;;;34.80;33.23;97678.31;5032277;28;20446;-72
2023/09/10 09:29:48;;;;;;;9.93;7.33;;;;;;;34.90;32.69;97672.72;5027346;28;20186;-72
2023/09/10 09:32:15;;;;;;;14.70;7.30;;;;;;;35.04;32.19;97678.19;5022469;28;20419;-73
2023/09/10 09:34:40;;;;;;;11.63;6.53;;;;;;;35.09;31.59;97669.09;5046466;28;20427;-74
2023/09/10 09:37:06;;;;;;;7.37;6.43;;;;;;;35.16;31.92;97670.31;5033914;28;20441;-73
2023/09/10 09:39:31;;;;;;;15.63;11.77;;;;;;;35.29;32.45;97665.16;5038459;28;20219;-73
2023/09/10 09:41:57;;;;;;;8.50;6.90;;;;;;;35.43;32.17;97663.28;5032661;28;20885;-73
2023/09/10 09:44:22;;;;;;;15.83;8.30;;;;;;;35.55;31.64;97662.72;5039408;28;20257;-72
2023/09/10 09:46:48;;;;;;;16.80;6.50;;;;;;;35.50;31.06;97657.41;5039913;28;20293;-72
2023/09/10 09:49:13;;;;;;;10.30;6.17;;;;;;;35.50;31.50;97658.19;5031867;28;20183;-73
2023/09/10 09:51:42;;;;;;;13.60;7.40;;;;;;;35.68;30.87;97653.72;5032085;28;20690;-73
2023/09/10 09:54:08;;;;;;;10.03;8.03;;;;;;;35.74;31.14;97661.78;5031663;28;20190;-70
2023/09/10 09:56:33;;;;;;;11.20;7.10;;;;;;;36.02;30.91;97651.63;5040122;28;20458;-73
2023/09/10 09:58:59;;;;;;;8.30;7.07;;;;;;;36.08;30.17;97655.03;5035626;28;20233;-72
2023/09/10 10:01:25;;;;;;;9.73;5.67;;;;;;;36.18;30.78;97645.81;5037131;28;20190;-72
2023/09/10 10:03:52;;;;;;;7.40;6.23;;;;;;;36.34;30.12;97655.25;5031624;28;20219;-72
2023/09/10 10:06:18;;;;;;;13.70;6.87;;;;;;;36.47;29.73;97652.78;5025876;28;20453;-72
2023/09/10 10:08:50;;;;;;;9.40;7.20;;;;;;;36.42;29.65;97648.22;5012950;28;20444;-72
2023/09/10 10:11:17;;;;;;;14.60;9.77;;;;;;;36.55;29.26;97641.88;5035907;28;20186;-72
2023/09/10 10:13:42;;;;;;;10.27;6.03;;;;;;;36.47;28.72;97639.13;5030252;28;20471;-72
2023/09/10 10:16:09;;;;;;;7.73;7.00;;;;;;;36.52;29.22;97639.00;5018178;28;20555;-73
2023/09/10 10:18:34;;;;;;;7.27;6.13;;;;;;;36.52;29.08;97631.63;5016772;28;20198;-72
2023/09/10 10:21:00;;;;;;;8.70;6.83;;;;;;;36.66;29.15;97639.72;5015653;28;20965;-72
2023/09/10 10:23:25;;;;;;;10.13;6.97;;;;;;;36.70;28.90;97642.59;5023701;28;20211;-72
2023/09/10 10:25:52;;;;;;;11.00;7.63;;;;;;;36.75;28.95;97628.84;5022305;28;20215;-72
2023/09/10 10:28:18;;;;;;;10.20;6.07;;;;;;;36.83;29.05;97625.31;5030913;28;20193;-72
2023/09/10 10:30:52;;;;;;;8.93;6.10;;;;;;;37.05;28.78;97626.41;5032382;28;20441;-72
2023/09/10 10:33:21;;;;;;;7.90;6.40;;;;;;;37.11;27.99;97630.59;5035362;28;20944;-72
2023/09/10 10:36:02;;;;;;;9.80;7.40;;;;;;;37.13;27.85;97622.91;5033052;28;20829;-73
2023/09/10 10:38:33;;;;;;;15.90;6.40;;;;;;;37.18;27.75;97619.22;5013161;28;20438;-71
2023/09/10 10:41:03;;;;;;;11.10;6.10;;;;;;;37.31;27.67;97623.75;5020958;28;20442;-72
2023/09/10 10:43:40;;;;;;;10.30;6.50;;;;;;;37.36;28.19;97620.03;5037239;28;20516;-72
2023/09/10 10:46:08;;;;;;;10.43;6.27;;;;;;;37.50;28.07;97619.94;5034033;28;20483;-71
2023/09/10 10:48:38;;;;;;;7.20;6.50;;;;;;;37.66;27.58;97612.09;5016374;28;20418;-73
2023/09/10 10:51:09;;;;;;;6.87;6.13;;;;;;;37.62;27.66;97611.91;5035101;28;20430;-71
2023/09/10 10:53:35;;;;;;;6.80;6.07;;;;;;;37.69;27.87;97613.34;5012537;28;20480;-72
2023/09/10 10:56:04;;;;;;;6.43;5.57;;;;;;;37.75;27.57;97612.06;5018033;28;20515;-72
2023/09/10 10:58:31;;;;;;;10.33;5.70;;;;;;;37.83;27.46;97610.44;5009014;28;20430;-72
2023/09/10 11:00:58;;;;;;;10.90;6.17;;;;;;;37.94;27.34;97601.63;5011517;28;21160;-72
2023/09/10 11:03:24;;;;;;;6.63;5.93;;;;;;;37.88;27.10;97591.97;5042003;28;20473;-72
2023/09/10 11:06:11;;;;;;;11.20;6.37;;;;;;;38.01;26.98;97597.59;5020849;28;20464;-72
2023/09/10 11:08:41;;;;;;;13.03;5.70;;;;;;;38.06;26.64;97602.91;5035354;28;20190;-72
2023/09/10 11:11:37;;;;;;;9.33;5.90;;;;;;;38.13;27.54;97597.75;5027552;28;20546;-73
2023/09/10 11:14:05;;;;;;;8.93;5.83;;;;;;;38.17;26.61;97592.44;5020654;28;20457;-71
2023/09/10 11:16:34;;;;;;;9.60;6.03;;;;;;;38.20;26.67;97597.25;5034093;28;20441;-72
2023/09/10 11:19:00;;;;;;;8.73;6.27;;;;;;;38.25;26.17;97599.81;5039464;28;20445;-71
2023/09/10 11:21:54;;;;;;;9.10;5.30;;;;;;;38.22;26.46;97595.00;5037969;28;20443;-71
2023/09/10 11:24:19;;;;;;;16.80;6.23;;;;;;;38.26;25.93;97590.47;5031443;28;20514;-72